Time;durP1;ratioP1;P1;durP2;ratioP2;P2;SDS_P1;SDS_P2;PMS_P1;PMS_P2;Temp;Humidity;BMP_temperature;BMP_pressure;BME280_temperature;BME280_humidity;BME280_pressure;Samples;Min_cycle;Max_cycle;Signal;HPM_P1;HPM_P2
2022/03/13 00:02:17;;;;;;;16.00;6.35;;;;;;;;;;5013840;28;20057;-67
2022/03/13 00:05:02;;;;;;;10.32;5.38;;;;;;;;;;5012959;28;20044;-67
2022/03/13 00:07:51;;;;;;;11.43;5.70;;;;;;;;;;5013923;28;20038;-68
2022/03/13 00:10:36;;;;;;;10.75;5.47;;;;;;;;;;5012772;28;20052;-68
2022/03/13 00:13:22;;;;;;;11.63;6.13;;;;;;;;;;5013655;28;20072;-67
2022/03/13 00:16:10;;;;;;;11.10;5.90;;;;;;;;;;5012900;28;20117;-67
2022/03/13 00:18:56;;;;;;;12.45;5.38;;;;;;;;;;5013921;28;20072;-67
2022/03/13 00:21:45;;;;;;;11.45;5.78;;;;;;;;;;5012352;28;20469;-67
2022/03/13 00:24:29;;;;;;;19.73;5.68;;;;;;;;;;5016667;28;20034;-67
2022/03/13 00:27:14;;;;;;;10.73;5.13;;;;;;;;;;5034384;28;20134;-68
2022/03/13 00:30:01;;;;;;;10.50;5.40;;;;;;;;;;5031960;28;20042;-67
2022/03/13 00:32:47;;;;;;;11.60;5.30;;;;;;;;;;5033065;28;20034;-67
2022/03/13 00:35:31;;;;;;;9.20;5.07;;;;;;;;;;5032437;28;20063;-68
2022/03/13 00:38:16;;;;;;;11.30;5.00;;;;;;;;;;5005810;28;20061;-67
2022/03/13 00:41:00;;;;;;;12.02;5.95;;;;;;;;;;5033301;28;20042;-67
2022/03/13 00:43:44;;;;;;;10.43;5.20;;;;;;;;;;5033231;28;20040;-67
2022/03/13 00:46:29;;;;;;;9.73;4.85;;;;;;;;;;5031862;28;20066;-67
2022/03/13 00:49:13;;;;;;;12.88;5.55;;;;;;;;;;5040198;28;20036;-67
2022/03/13 00:52:01;;;;;;;10.93;5.22;;;;;;;;;;5044107;28;20087;-67
2022/03/13 00:54:46;;;;;;;10.23;4.90;;;;;;;;;;5054186;28;20025;-67
2022/03/13 00:57:32;;;;;;;11.32;5.43;;;;;;;;;;5051896;28;20453;-67
2022/03/13 01:00:17;;;;;;;9.93;5.18;;;;;;;;;;5052527;28;20382;-66
2022/03/13 01:03:02;;;;;;;9.57;4.82;;;;;;;;;;5023655;28;20421;-67
2022/03/13 01:05:47;;;;;;;11.45;5.10;;;;;;;;;;5051508;28;20411;-67
2022/03/13 01:08:31;;;;;;;10.68;4.82;;;;;;;;;;5051326;28;20505;-67
2022/03/13 01:11:18;;;;;;;12.00;5.88;;;;;;;;;;5033835;28;20148;-67
2022/03/13 01:14:02;;;;;;;13.55;5.63;;;;;;;;;;5031633;28;20080;-67
2022/03/13 01:16:48;;;;;;;17.13;4.93;;;;;;;;;;5031249;28;20033;-67
2022/03/13 01:19:33;;;;;;;9.27;5.15;;;;;;;;;;5018296;28;20045;-68
2022/03/13 01:22:19;;;;;;;11.85;5.35;;;;;;;;;;5012410;28;20092;-67
2022/03/13 01:25:04;;;;;;;12.02;6.05;;;;;;;;;;5011665;28;20069;-67
2022/03/13 01:27:49;;;;;;;8.63;4.85;;;;;;;;;;5011183;28;20716;-67
2022/03/13 01:30:33;;;;;;;11.52;5.40;;;;;;;;;;5022093;28;20041;-67
2022/03/13 01:33:18;;;;;;;9.65;5.05;;;;;;;;;;5059242;28;20048;-66
2022/03/13 01:36:03;;;;;;;8.98;4.38;;;;;;;;;;5032098;28;20033;-67
2022/03/13 01:38:52;;;;;;;12.63;4.93;;;;;;;;;;5058629;28;20046;-66
2022/03/13 01:41:36;;;;;;;9.73;5.57;;;;;;;;;;5041207;28;20397;-67
2022/03/13 01:44:21;;;;;;;12.48;5.15;;;;;;;;;;5050662;28;20037;-67
2022/03/13 01:47:06;;;;;;;10.68;5.97;;;;;;;;;;5050664;28;20032;-67
2022/03/13 01:49:52;;;;;;;11.57;4.90;;;;;;;;;;5038963;28;20044;-67
2022/03/13 01:52:37;;;;;;;11.75;4.40;;;;;;;;;;5031775;28;20064;-67
2022/03/13 01:55:22;;;;;;;9.23;4.70;;;;;;;;;;5030600;28;20509;-67
2022/03/13 01:58:06;;;;;;;13.38;5.25;;;;;;;;;;5031984;28;20072;-66
2022/03/13 02:00:50;;;;;;;10.25;5.60;;;;;;;;;;5030700;28;20041;-66
2022/03/13 02:03:35;;;;;;;10.20;5.38;;;;;;;;;;5030558;28;20073;-67
2022/03/13 02:06:29;;;;;;;9.05;4.75;;;;;;;;;;5030941;28;20046;-67
2022/03/13 02:09:13;;;;;;;13.30;5.75;;;;;;;;;;5030367;28;20045;-67
2022/03/13 02:11:58;;;;;;;8.48;4.75;;;;;;;;;;5042185;28;20180;-68
2022/03/13 02:14:42;;;;;;;11.02;4.68;;;;;;;;;;5056954;28;20032;-68
2022/03/13 02:17:28;;;;;;;9.25;4.35;;;;;;;;;;5050640;28;20032;-68
2022/03/13 02:20:14;;;;;;;13.02;5.32;;;;;;;;;;5063540;28;20051;-68
2022/03/13 02:22:59;;;;;;;11.15;5.18;;;;;;;;;;5048131;28;20045;-67
2022/03/13 02:25:47;;;;;;;9.93;5.07;;;;;;;;;;5050017;28;20025;-68
2022/03/13 02:28:32;;;;;;;9.23;4.75;;;;;;;;;;5040751;28;20488;-68
2022/03/13 02:31:18;;;;;;;7.30;4.60;;;;;;;;;;5033142;28;20021;-67
2022/03/13 02:34:03;;;;;;;8.07;4.03;;;;;;;;;;5039410;28;20430;-67
2022/03/13 02:36:49;;;;;;;9.20;4.60;;;;;;;;;;5047598;28;20037;-66
2022/03/13 02:39:36;;;;;;;9.02;4.72;;;;;;;;;;5039429;28;20048;-67
2022/03/13 02:42:20;;;;;;;11.68;4.93;;;;;;;;;;5033241;28;20028;-67
2022/03/13 02:45:04;;;;;;;16.00;5.95;;;;;;;;;;5022779;28;20025;-67
2022/03/13 02:47:49;;;;;;;8.63;4.40;;;;;;;;;;5038718;28;20091;-68
2022/03/13 02:50:34;;;;;;;8.02;4.10;;;;;;;;;;5004931;28;20469;-68
2022/03/13 02:53:19;;;;;;;12.88;5.82;;;;;;;;;;5037168;28;20041;-66
2022/03/13 02:56:03;;;;;;;10.85;5.50;;;;;;;;;;5037634;28;20033;-68
2022/03/13 02:58:50;;;;;;;10.68;5.25;;;;;;;;;;5037705;28;20148;-67
2022/03/13 03:01:36;;;;;;;9.93;4.90;;;;;;;;;;5030653;28;20037;-67
2022/03/13 03:04:22;;;;;;;9.48;4.95;;;;;;;;;;5030360;28;20026;-67
2022/03/13 03:07:07;;;;;;;9.95;5.07;;;;;;;;;;5029982;28;20037;-68
2022/03/13 03:09:51;;;;;;;11.43;5.75;;;;;;;;;;5029693;28;20037;-68
2022/03/13 03:12:37;;;;;;;9.80;5.60;;;;;;;;;;5015991;28;20092;-67
2022/03/13 03:15:23;;;;;;;9.82;4.50;;;;;;;;;;5051075;28;20049;-67
2022/03/13 03:18:12;;;;;;;10.25;5.45;;;;;;;;;;5050527;28;20075;-67
2022/03/13 03:20:57;;;;;;;10.90;5.80;;;;;;;;;;5050803;28;20449;-68
2022/03/13 03:23:42;;;;;;;9.65;4.78;;;;;;;;;;5050529;28;20082;-69
2022/03/13 03:26:27;;;;;;;10.23;5.18;;;;;;;;;;5050751;28;20484;-68
2022/03/13 03:29:12;;;;;;;9.57;4.70;;;;;;;;;;5035448;28;20041;-68
2022/03/13 03:31:57;;;;;;;9.85;4.88;;;;;;;;;;5050758;28;20052;-67
2022/03/13 03:34:41;;;;;;;11.90;4.55;;;;;;;;;;5050656;28;20044;-68
2022/03/13 03:37:31;;;;;;;9.50;5.10;;;;;;;;;;5049470;28;20041;-67
2022/03/13 03:40:16;;;;;;;9.82;5.10;;;;;;;;;;5050171;28;20041;-67
2022/03/13 03:43:02;;;;;;;9.70;5.05;;;;;;;;;;5050417;28;20037;-67
2022/03/13 03:45:48;;;;;;;9.88;4.85;;;;;;;;;;5050366;28;20032;-68
2022/03/13 03:48:34;;;;;;;10.60;5.50;;;;;;;;;;5038738;28;20051;-69
2022/03/13 03:51:19;;;;;;;8.70;4.63;;;;;;;;;;5032813;28;20409;-66
2022/03/13 03:54:05;;;;;;;9.20;5.15;;;;;;;;;;5032720;28;20144;-67
2022/03/13 03:56:49;;;;;;;9.15;5.45;;;;;;;;;;5033826;28;20049;-67
2022/03/13 03:59:33;;;;;;;14.73;5.78;;;;;;;;;;5033706;28;20042;-67
2022/03/13 04:02:18;;;;;;;13.35;6.43;;;;;;;;;;5051717;28;20102;-67
2022/03/13 04:05:04;;;;;;;12.32;6.63;;;;;;;;;;5053497;28;20083;-67
2022/03/13 04:07:49;;;;;;;10.07;4.68;;;;;;;;;;5038256;28;20039;-67
2022/03/13 04:10:33;;;;;;;9.85;5.60;;;;;;;;;;5053350;28;20068;-67
2022/03/13 04:13:18;;;;;;;11.65;6.25;;;;;;;;;;5053563;28;20069;-68
2022/03/13 04:16:04;;;;;;;9.43;4.97;;;;;;;;;;5053858;28;20119;-68
2022/03/13 04:18:48;;;;;;;9.35;5.85;;;;;;;;;;5038710;28;20033;-69
2022/03/13 04:21:34;;;;;;;15.93;7.20;;;;;;;;;;5053681;28;20033;-68
2022/03/13 04:24:19;;;;;;;9.30;5.53;;;;;;;;;;5052217;28;20040;-69
2022/03/13 04:27:03;;;;;;;9.07;4.18;;;;;;;;;;5052508;28;20032;-68
2022/03/13 04:29:48;;;;;;;8.43;4.72;;;;;;;;;;5053162;28;20450;-68
2022/03/13 04:32:32;;;;;;;11.90;5.13;;;;;;;;;;5053137;28;20095;-67
2022/03/13 04:35:17;;;;;;;11.00;5.88;;;;;;;;;;5038391;28;20033;-68
2022/03/13 04:38:02;;;;;;;12.77;5.80;;;;;;;;;;5053010;28;20033;-68
2022/03/13 04:40:46;;;;;;;12.00;5.90;;;;;;;;;;5051888;28;20516;-67
2022/03/13 04:43:31;;;;;;;12.57;5.82;;;;;;;;;;5052957;28;20048;-68
2022/03/13 04:46:15;;;;;;;13.00;6.10;;;;;;;;;;5051909;28;20052;-68
2022/03/13 04:49:00;;;;;;;12.10;5.90;;;;;;;;;;5034350;28;20029;-68
2022/03/13 04:51:44;;;;;;;13.02;6.40;;;;;;;;;;5037830;28;20037;-69
2022/03/13 04:54:29;;;;;;;11.45;6.20;;;;;;;;;;5036152;28;20033;-68
2022/03/13 04:57:14;;;;;;;9.65;5.55;;;;;;;;;;5015703;28;20040;-68
2022/03/13 04:59:58;;;;;;;12.80;6.85;;;;;;;;;;5041953;28;20061;-68
2022/03/13 05:02:43;;;;;;;10.25;6.25;;;;;;;;;;5019237;28;20337;-68
2022/03/13 05:05:28;;;;;;;13.02;5.90;;;;;;;;;;5033518;28;20048;-67
2022/03/13 05:08:14;;;;;;;11.40;6.05;;;;;;;;;;5018131;28;20061;-68
2022/03/13 05:11:00;;;;;;;11.38;5.50;;;;;;;;;;5032179;28;20079;-68
2022/03/13 05:13:44;;;;;;;13.77;6.13;;;;;;;;;;5031730;28;20093;-68
2022/03/13 05:16:30;;;;;;;12.32;5.65;;;;;;;;;;5032813;28;20052;-68
2022/03/13 05:19:15;;;;;;;11.68;5.65;;;;;;;;;;5017818;28;20029;-68
2022/03/13 05:21:59;;;;;;;10.18;5.60;;;;;;;;;;5030606;28;20037;-68
2022/03/13 05:24:44;;;;;;;10.55;5.40;;;;;;;;;;5031430;28;20063;-67
2022/03/13 05:27:28;;;;;;;12.68;5.00;;;;;;;;;;5029302;28;20056;-68
2022/03/13 05:30:13;;;;;;;11.05;5.47;;;;;;;;;;5031781;28;20404;-68
2022/03/13 05:32:58;;;;;;;15.13;5.80;;;;;;;;;;5036997;28;20041;-68
2022/03/13 05:35:42;;;;;;;9.75;5.20;;;;;;;;;;5033393;28;20473;-68
2022/03/13 05:38:28;;;;;;;12.98;5.65;;;;;;;;;;5034265;28;20061;-69
2022/03/13 05:41:13;;;;;;;10.32;5.78;;;;;;;;;;5036580;28;20037;-67
2022/03/13 05:43:58;;;;;;;9.77;5.25;;;;;;;;;;5018836;28;20045;-68
2022/03/13 05:46:42;;;;;;;15.52;5.68;;;;;;;;;;5032545;28;20037;-68
2022/03/13 05:49:27;;;;;;;11.02;5.53;;;;;;;;;;5011293;28;20038;-68
2022/03/13 05:52:13;;;;;;;13.20;5.53;;;;;;;;;;5012392;28;20041;-68
2022/03/13 05:54:57;;;;;;;18.15;8.27;;;;;;;;;;5031692;28;20033;-68
2022/03/13 05:57:42;;;;;;;9.27;5.70;;;;;;;;;;5051687;28;20044;-68
2022/03/13 06:00:27;;;;;;;15.07;6.72;;;;;;;;;;5036311;28;20476;-66
2022/03/13 06:03:12;;;;;;;10.05;5.68;;;;;;;;;;5051408;28;20040;-67
2022/03/13 06:05:57;;;;;;;12.13;5.70;;;;;;;;;;5036589;28;20075;-68
2022/03/13 06:08:41;;;;;;;11.48;5.80;;;;;;;;;;5050961;28;20476;-67
2022/03/13 06:11:27;;;;;;;13.85;5.35;;;;;;;;;;5051883;28;20067;-68
2022/03/13 06:14:12;;;;;;;7.95;5.43;;;;;;;;;;5036311;28;20039;-68
2022/03/13 06:16:57;;;;;;;13.43;5.88;;;;;;;;;;5050578;28;20037;-67
2022/03/13 06:19:42;;;;;;;9.85;5.68;;;;;;;;;;5050442;28;20468;-67
2022/03/13 06:22:27;;;;;;;12.05;5.90;;;;;;;;;;5051293;28;20560;-67
2022/03/13 06:25:13;;;;;;;9.90;5.40;;;;;;;;;;5051497;28;20095;-67
2022/03/13 06:28:01;;;;;;;9.10;5.22;;;;;;;;;;5051040;28;20039;-67
2022/03/13 06:30:46;;;;;;;13.90;5.50;;;;;;;;;;5049704;28;20475;-67
2022/03/13 06:33:30;;;;;;;15.73;6.28;;;;;;;;;;5050134;28;20108;-67
2022/03/13 06:36:16;;;;;;;11.18;6.03;;;;;;;;;;5050900;28;20029;-67
2022/03/13 06:39:02;;;;;;;10.82;5.50;;;;;;;;;;5049650;28;20056;-68
2022/03/13 06:41:46;;;;;;;12.05;7.05;;;;;;;;;;5050047;28;20120;-67
2022/03/13 06:44:32;;;;;;;13.02;6.13;;;;;;;;;;5051140;28;20040;-68
2022/03/13 06:47:17;;;;;;;11.75;5.97;;;;;;;;;;5045717;28;20041;-68
2022/03/13 06:50:02;;;;;;;13.40;5.90;;;;;;;;;;5031267;28;20060;-68
2022/03/13 06:52:47;;;;;;;13.73;5.82;;;;;;;;;;5037346;28;20033;-67
2022/03/13 06:55:31;;;;;;;11.85;6.45;;;;;;;;;;5037359;28;20567;-68
2022/03/13 06:58:15;;;;;;;15.77;6.20;;;;;;;;;;5020395;28;20033;-68
2022/03/13 07:01:00;;;;;;;12.23;6.68;;;;;;;;;;5031022;28;20374;-67
2022/03/13 07:03:44;;;;;;;12.63;5.88;;;;;;;;;;5031275;28;20037;-64
2022/03/13 07:06:29;;;;;;;9.38;4.10;;;;;;;;;;5031175;28;20092;-64
2022/03/13 07:09:14;;;;;;;9.98;4.85;;;;;;;;;;5017116;28;20485;-68
2022/03/13 07:11:59;;;;;;;9.00;5.50;;;;;;;;;;5030133;28;20037;-69
2022/03/13 07:14:48;;;;;;;12.52;6.63;;;;;;;;;;5030945;28;20025;-70
2022/03/13 07:17:33;;;;;;;12.30;6.57;;;;;;;;;;5034236;28;20400;-71
2022/03/13 07:20:18;;;;;;;9.90;6.07;;;;;;;;;;5035938;28;20055;-66
2022/03/13 07:23:03;;;;;;;13.15;5.22;;;;;;;;;;5039041;28;20033;-67
2022/03/13 07:25:48;;;;;;;8.25;4.38;;;;;;;;;;5050934;28;20112;-60
2022/03/13 07:28:33;;;;;;;10.07;5.25;;;;;;;;;;5046277;28;20034;-59
2022/03/13 07:31:17;;;;;;;10.70;6.60;;;;;;;;;;5034136;28;20038;-60
2022/03/13 07:34:01;;;;;;;10.35;5.47;;;;;;;;;;5033991;28;20392;-60
2022/03/13 07:36:45;;;;;;;10.77;5.57;;;;;;;;;;5033897;28;20472;-61
2022/03/13 07:39:30;;;;;;;9.88;5.60;;;;;;;;;;5043320;28;20060;-61
2022/03/13 07:42:14;;;;;;;9.30;5.45;;;;;;;;;;5044259;28;20029;-59
2022/03/13 07:44:59;;;;;;;12.57;5.25;;;;;;;;;;5034011;28;20123;-60
2022/03/13 07:47:43;;;;;;;11.30;5.57;;;;;;;;;;5023781;28;20046;-59
2022/03/13 07:50:28;;;;;;;12.77;6.10;;;;;;;;;;5033458;28;20042;-59
2022/03/13 07:53:13;;;;;;;12.73;5.68;;;;;;;;;;5049605;28;20029;-60
2022/03/13 07:55:57;;;;;;;13.82;6.20;;;;;;;;;;5024335;28;20495;-59
2022/03/13 07:58:44;;;;;;;9.82;5.57;;;;;;;;;;5040797;28;20065;-59
2022/03/13 08:01:28;;;;;;;11.10;6.30;;;;;;;;;;5046853;28;20400;-59
2022/03/13 08:04:15;;;;;;;8.75;5.65;;;;;;;;;;5040929;28;20033;-59
2022/03/13 08:06:59;;;;;;;12.38;6.57;;;;;;;;;;5038265;28;20322;-58
2022/03/13 08:09:44;;;;;;;11.32;5.78;;;;;;;;;;5024715;28;20090;-60
2022/03/13 08:12:28;;;;;;;11.43;6.03;;;;;;;;;;5040201;28;20096;-59
2022/03/13 08:15:12;;;;;;;13.05;5.65;;;;;;;;;;5037419;28;20037;-61
2022/03/13 08:17:57;;;;;;;10.30;5.78;;;;;;;;;;5024203;28;20041;-61
2022/03/13 08:20:42;;;;;;;10.70;5.80;;;;;;;;;;5033424;28;20033;-62
2022/03/13 08:23:26;;;;;;;9.15;5.07;;;;;;;;;;5031161;28;20025;-61
2022/03/13 08:26:11;;;;;;;12.05;5.20;;;;;;;;;;5032386;28;20037;-62
2022/03/13 08:28:57;;;;;;;7.88;5.30;;;;;;;;;;5032098;28;20128;-62
2022/03/13 08:31:41;;;;;;;10.90;6.25;;;;;;;;;;5031802;28;20033;-62
2022/03/13 08:34:30;;;;;;;12.70;9.82;;;;;;;;;;5018060;28;20045;-60
2022/03/13 08:37:15;;;;;;;9.98;5.88;;;;;;;;;;5033192;28;20049;-60
2022/03/13 08:40:00;;;;;;;10.98;6.10;;;;;;;;;;5032410;28;20053;-62
2022/03/13 08:42:45;;;;;;;9.13;5.38;;;;;;;;;;5032556;28;20033;-61
2022/03/13 08:45:29;;;;;;;10.90;6.47;;;;;;;;;;5031799;28;20042;-61
2022/03/13 08:48:13;;;;;;;11.45;6.95;;;;;;;;;;5045014;28;20051;-61
2022/03/13 08:50:58;;;;;;;10.35;5.68;;;;;;;;;;5051887;28;20045;-61
2022/03/13 08:53:42;;;;;;;10.05;5.97;;;;;;;;;;5051832;28;20067;-61
2022/03/13 08:56:27;;;;;;;12.93;6.50;;;;;;;;;;5052353;28;20037;-61
2022/03/13 08:59:12;;;;;;;10.48;5.88;;;;;;;;;;5053034;28;20179;-61
2022/03/13 09:01:56;;;;;;;10.63;5.80;;;;;;;;;;5051660;28;20056;-61
2022/03/13 09:04:41;;;;;;;11.50;5.43;;;;;;;;;;5052456;28;20033;-61
2022/03/13 09:07:26;;;;;;;11.18;5.45;;;;;;;;;;5052276;28;20032;-61
2022/03/13 09:10:11;;;;;;;10.88;5.43;;;;;;;;;;5052039;28;20041;-60
2022/03/13 09:12:56;;;;;;;10.55;5.30;;;;;;;;;;5051761;28;20032;-59
2022/03/13 09:15:40;;;;;;;9.50;5.28;;;;;;;;;;5052112;28;20041;-60
2022/03/13 09:18:25;;;;;;;10.77;5.13;;;;;;;;;;5051720;28;20071;-60
2022/03/13 09:21:10;;;;;;;9.65;5.45;;;;;;;;;;5050564;28;20032;-60
2022/03/13 09:23:54;;;;;;;9.88;5.07;;;;;;;;;;5051754;28;20373;-60
2022/03/13 09:26:43;;;;;;;8.00;4.60;;;;;;;;;;5051835;28;20033;-60
2022/03/13 09:29:27;;;;;;;9.00;4.40;;;;;;;;;;5050811;28;20040;-60
2022/03/13 09:32:11;;;;;;;9.88;4.53;;;;;;;;;;5051341;28;20139;-60
2022/03/13 09:34:55;;;;;;;9.70;4.78;;;;;;;;;;5036350;28;20051;-60
2022/03/13 09:37:40;;;;;;;9.85;4.90;;;;;;;;;;5051773;28;20132;-60
2022/03/13 09:40:26;;;;;;;9.05;4.70;;;;;;;;;;5051742;28;20041;-60
2022/03/13 09:43:12;;;;;;;6.32;4.38;;;;;;;;;;5051224;28;20060;-60
2022/03/13 09:45:56;;;;;;;8.32;4.55;;;;;;;;;;5050119;28;20037;-60
2022/03/13 09:48:41;;;;;;;7.25;4.50;;;;;;;;;;5035867;28;20137;-60
2022/03/13 09:51:26;;;;;;;7.93;5.00;;;;;;;;;;5032065;28;20063;-59
2022/03/13 09:54:11;;;;;;;8.35;4.00;;;;;;;;;;5027339;28;20029;-60
2022/03/13 09:56:55;;;;;;;7.13;4.45;;;;;;;;;;5032953;28;20057;-60
2022/03/13 09:59:43;;;;;;;28.77;13.40;;;;;;;;;;5042066;28;20029;-59
2022/03/13 10:02:34;;;;;;;20.50;8.63;;;;;;;;;;5031041;28;20116;-60
2022/03/13 10:05:20;;;;;;;9.93;5.18;;;;;;;;;;5031409;28;20409;-60
2022/03/13 10:08:04;;;;;;;7.82;4.50;;;;;;;;;;5031145;28;20575;-61
2022/03/13 10:10:50;;;;;;;10.05;4.97;;;;;;;;;;5030128;28;20631;-60
2022/03/13 10:13:46;;;;;;;6.03;3.53;;;;;;;;;;5038149;28;20036;-61
2022/03/13 10:16:36;;;;;;;7.65;4.55;;;;;;;;;;5012491;28;20037;-60
2022/03/13 10:19:22;;;;;;;6.82;4.40;;;;;;;;;;5030850;28;20121;-60
2022/03/13 10:22:09;;;;;;;7.88;4.40;;;;;;;;;;5045250;28;20041;-61
2022/03/13 10:24:54;;;;;;;8.65;3.85;;;;;;;;;;5029763;28;20385;-62
2022/03/13 10:27:40;;;;;;;8.63;4.10;;;;;;;;;;5030336;28;20078;-61
2022/03/13 10:30:26;;;;;;;8.23;4.47;;;;;;;;;;5030096;28;20041;-61
2022/03/13 10:33:10;;;;;;;7.90;4.03;;;;;;;;;;5040637;28;20041;-62
2022/03/13 10:36:08;;;;;;;10.00;5.15;;;;;;;;;;5016567;28;20026;-60
2022/03/13 10:38:54;;;;;;;8.13;4.50;;;;;;;;;;5030957;28;20068;-61
2022/03/13 10:41:45;;;;;;;7.15;4.20;;;;;;;;;;5029765;28;20108;-59
2022/03/13 10:44:42;;;;;;;9.48;5.20;;;;;;;;;;5030522;28;20037;-61
2022/03/13 10:47:31;;;;;;;9.05;5.22;;;;;;;;;;5047115;28;20033;-59
2022/03/13 10:50:16;;;;;;;7.60;4.47;;;;;;;;;;5032977;28;20042;-61
2022/03/13 10:53:09;;;;;;;13.60;5.53;;;;;;;;;;5036600;28;20036;-60
2022/03/13 10:56:00;;;;;;;9.23;4.80;;;;;;;;;;5052540;28;20029;-56
2022/03/13 10:58:47;;;;;;;;;;;;;;;;;;5032473;28;20025;-58
2022/03/13 11:01:32;;;;;;;6.85;3.63;;;;;;;;;;5033471;28;19909;-60
2022/03/13 11:04:22;;;;;;;5.68;3.38;;;;;;;;;;5037050;28;20045;-61
2022/03/13 11:07:06;;;;;;;7.93;4.28;;;;;;;;;;5016358;28;20033;-62
2022/03/13 11:09:52;;;;;;;9.00;3.75;;;;;;;;;;5029796;28;20057;-61
2022/03/13 11:12:40;;;;;;;6.25;3.25;;;;;;;;;;5032900;28;20037;-60
2022/03/13 11:15:27;;;;;;;7.32;3.28;;;;;;;;;;5031875;28;20025;-61
2022/03/13 11:18:16;;;;;;;4.85;3.03;;;;;;;;;;5019613;28;20041;-60
2022/03/13 11:21:01;;;;;;;5.47;3.00;;;;;;;;;;5044302;28;20039;-60
2022/03/13 11:23:46;;;;;;;7.93;3.50;;;;;;;;;;5054290;28;20087;-60
2022/03/13 11:26:31;;;;;;;6.35;2.92;;;;;;;;;;5052644;28;20041;-60
2022/03/13 11:29:15;;;;;;;8.68;3.38;;;;;;;;;;5047375;28;20488;-59
2022/03/13 11:32:01;;;;;;;6.82;3.40;;;;;;;;;;5031239;28;20044;-61
2022/03/13 11:35:06;;;;;;;5.32;3.42;;;;;;;;;;5014486;28;20073;-63
2022/03/13 11:37:51;;;;;;;5.38;3.28;;;;;;;;;;5031113;28;20120;-63
2022/03/13 11:40:37;;;;;;;6.80;3.33;;;;;;;;;;5031958;28;20042;-61
2022/03/13 11:43:23;;;;;;;6.05;3.13;;;;;;;;;;5031653;28;20034;-59
2022/03/13 11:46:07;;;;;;;4.60;2.92;;;;;;;;;;5031074;28;20440;-58
2022/03/13 11:48:51;;;;;;;5.03;3.13;;;;;;;;;;5030991;28;20076;-61
2022/03/13 11:51:36;;;;;;;5.78;2.72;;;;;;;;;;5030059;28;20041;-58
2022/03/13 11:54:53;;;;;;;5.25;3.17;;;;;;;;;;5030821;28;20041;-55
2022/03/13 11:57:44;;;;;;;7.50;3.20;;;;;;;;;;5032134;28;20041;-57
2022/03/13 12:00:28;;;;;;;4.80;3.10;;;;;;;;;;5029885;28;20481;-57
2022/03/13 12:03:13;;;;;;;7.47;3.05;;;;;;;;;;5030543;28;20053;-57
2022/03/13 12:05:59;;;;;;;6.93;3.25;;;;;;;;;;5031263;28;20060;-58
2022/03/13 12:09:02;;;;;;;6.57;2.70;;;;;;;;;;5031941;28;20042;-57
2022/03/13 12:11:50;;;;;;;5.78;3.03;;;;;;;;;;5017531;28;20697;-58
2022/03/13 12:14:54;;;;;;;4.13;2.97;;;;;;;;;;5033332;28;20149;-58
2022/03/13 12:17:46;;;;;;;7.85;3.63;;;;;;;;;;5036091;28;20030;-59
2022/03/13 12:20:31;;;;;;;6.78;3.35;;;;;;;;;;5033433;28;20120;-59
2022/03/13 12:23:25;;;;;;;4.50;3.00;;;;;;;;;;5033147;28;20148;-58
2022/03/13 12:26:28;;;;;;;5.40;3.47;;;;;;;;;;5031296;28;20030;-57
2022/03/13 12:29:14;;;;;;;5.53;3.03;;;;;;;;;;5031630;28;20775;-64
2022/03/13 12:31:59;;;;;;;5.47;3.33;;;;;;;;;;5033791;28;20025;-51
2022/03/13 12:34:44;;;;;;;6.32;3.78;;;;;;;;;;5030351;28;20076;-55
2022/03/13 12:37:29;;;;;;;6.63;3.45;;;;;;;;;;5030437;28;20033;-58
2022/03/13 12:40:14;;;;;;;5.20;2.92;;;;;;;;;;5032266;28;20160;-60
2022/03/13 12:42:59;;;;;;;7.85;3.17;;;;;;;;;;5043955;28;20086;-59
2022/03/13 12:45:51;;;;;;;7.95;3.67;;;;;;;;;;5031007;28;20041;-57
2022/03/13 12:48:37;;;;;;;5.65;2.95;;;;;;;;;;5011591;28;20088;-59
2022/03/13 12:51:41;;;;;;;5.03;3.45;;;;;;;;;;5011159;28;20046;-59
2022/03/13 12:54:29;;;;;;;8.07;3.20;;;;;;;;;;5027757;28;20045;-58
2022/03/13 12:57:18;;;;;;;7.35;3.28;;;;;;;;;;5030991;28;20099;-58
2022/03/13 13:00:04;;;;;;;5.20;2.72;;;;;;;;;;5041845;28;20096;-59
2022/03/13 13:02:59;;;;;;;5.35;2.85;;;;;;;;;;5048670;28;20036;-60
2022/03/13 13:05:53;;;;;;;6.43;3.75;;;;;;;;;;5048718;28;20563;-60
2022/03/13 13:08:37;;;;;;;4.05;2.63;;;;;;;;;;5049481;28;20025;-60
2022/03/13 13:11:33;;;;;;;6.82;3.13;;;;;;;;;;5048661;28;20029;-60
2022/03/13 13:14:22;;;;;;;5.88;2.60;;;;;;;;;;5049692;28;20132;-59
2022/03/13 13:17:11;;;;;;;9.65;2.70;;;;;;;;;;5051225;28;20404;-59
2022/03/13 13:19:56;;;;;;;5.68;2.92;;;;;;;;;;5043563;28;20030;-59
2022/03/13 13:22:41;;;;;;;5.28;3.05;;;;;;;;;;5050111;28;20089;-58
2022/03/13 13:25:27;;;;;;;7.82;3.22;;;;;;;;;;5050383;28;20045;-58
2022/03/13 13:28:12;;;;;;;6.60;2.90;;;;;;;;;;5050605;28;20036;-59
2022/03/13 13:30:57;;;;;;;3.72;2.72;;;;;;;;;;5051395;28;20041;-57
2022/03/13 13:33:42;;;;;;;5.15;3.08;;;;;;;;;;5050215;28;20443;-58
2022/03/13 13:36:26;;;;;;;6.28;2.50;;;;;;;;;;5050278;28;20061;-57
2022/03/13 13:41:09;;;;;;;4.43;2.45;;;;;;;14.84;14.03;99468.94;5128519;27;20945;-57
2022/03/13 13:43:54;;;;;;;5.47;2.90;;;;;;;14.83;13.30;99467.25;5099516;28;20040;-57
2022/03/13 13:46:40;;;;;;;4.32;2.47;;;;;;;14.93;13.18;99479.75;5128502;28;20066;-56
2022/03/13 13:49:26;;;;;;;4.72;2.60;;;;;;;15.29;13.59;99484.97;5038946;27;20112;-56
2022/03/13 13:52:11;;;;;;;5.10;2.80;;;;;;;15.47;13.32;99482.72;5072384;28;20091;-57
2022/03/13 13:54:56;;;;;;;5.90;2.90;;;;;;;15.73;14.92;99478.00;5087901;28;20470;-58
2022/03/13 13:57:40;;;;;;;4.70;2.47;;;;;;;15.74;12.84;99471.78;5086868;28;20040;-56
2022/03/13 14:00:28;;;;;;;4.68;2.42;;;;;;;15.17;13.53;99468.28;5087431;28;20638;-57
2022/03/13 14:03:13;;;;;;;5.68;2.42;;;;;;;15.11;14.04;99467.78;5014758;28;20072;-58
2022/03/13 14:05:57;;;;;;;4.60;2.70;;;;;;;14.55;13.37;99466.66;5067632;28;20045;-58
2022/03/13 14:08:42;;;;;;;4.47;2.22;;;;;;;15.20;13.02;99462.75;5067063;28;20577;-58
2022/03/13 14:11:26;;;;;;;4.20;2.30;;;;;;;14.34;13.54;99459.38;5051931;28;20037;-58
2022/03/13 14:14:11;;;;;;;4.95;2.85;;;;;;;14.34;13.23;99450.63;5051951;28;20041;-57
2022/03/13 14:16:56;;;;;;;4.88;2.60;;;;;;;13.65;13.94;99458.13;5065436;28;20120;-58
2022/03/13 14:19:40;;;;;;;4.90;2.60;;;;;;;13.73;13.75;99466.31;5030043;28;79445;-58
2022/03/13 14:22:33;;;;;;;3.70;2.40;;;;;;;13.74;13.98;99475.88;5067221;28;20135;-58
2022/03/13 14:25:17;;;;;;;5.75;3.05;;;;;;;14.51;13.30;99471.31;5067162;28;20045;-58
2022/03/13 14:28:03;;;;;;;4.95;2.60;;;;;;;14.59;13.55;99460.19;5053027;28;20149;-57
2022/03/13 14:30:48;;;;;;;4.20;2.65;;;;;;;15.09;13.87;99459.16;5068339;28;20147;-59
2022/03/13 14:35:09;;;;;;;6.82;2.78;;;;;;;14.31;13.57;99461.41;4987539;27;253471;-56
2022/03/13 14:37:58;;;;;;;7.75;3.00;;;;;;;14.19;13.89;99468.41;5032604;28;20057;-59
2022/03/13 14:40:44;;;;;;;3.72;2.42;;;;;;;14.80;14.56;99458.72;5026975;28;20037;-58
2022/03/13 14:43:29;;;;;;;4.60;2.92;;;;;;;13.71;14.33;99464.75;5013704;28;20458;-57
2022/03/13 14:46:14;;;;;;;4.85;2.90;;;;;;;13.53;18.02;99465.94;5030409;28;20400;-58
2022/03/13 14:49:00;;;;;;;6.15;2.90;;;;;;;13.90;15.11;99470.41;5027091;28;20099;-57
2022/03/13 14:51:44;;;;;;;6.38;2.95;;;;;;;13.21;14.52;99460.22;5026027;28;20050;-59
2022/03/13 14:54:29;;;;;;;6.05;2.53;;;;;;;13.51;19.48;99456.47;5027438;28;20045;-59
2022/03/13 14:57:14;;;;;;;5.57;2.88;;;;;;;13.87;15.26;99446.06;5028200;28;20041;-58
2022/03/13 15:00:00;;;;;;;6.00;2.90;;;;;;;13.86;15.62;99450.50;5027412;28;20037;-57
2022/03/13 15:02:44;;;;;;;5.72;2.70;;;;;;;13.50;15.27;99460.00;5027518;28;20208;-59
2022/03/13 15:05:29;;;;;;;4.95;3.00;;;;;;;13.00;17.40;99452.88;5012458;28;20099;-59
2022/03/13 15:08:17;;;;;;;5.10;2.83;;;;;;;13.78;15.53;99466.84;5026474;28;20045;-58
2022/03/13 15:11:04;;;;;;;5.00;2.80;;;;;;;13.36;15.39;99458.34;5026410;28;20477;-59
2022/03/13 15:13:48;;;;;;;5.38;2.95;;;;;;;12.77;16.82;99460.50;5028298;28;20037;-58
2022/03/13 15:16:33;;;;;;;4.22;2.60;;;;;;;12.64;14.46;99469.22;5026341;28;20492;-58
2022/03/13 15:19:18;;;;;;;4.20;2.88;;;;;;;12.13;15.13;99468.09;5013125;28;20121;-58
2022/03/13 15:22:03;;;;;;;4.55;2.40;;;;;;;12.51;15.06;99473.59;5027650;28;20046;-60
2022/03/13 15:24:48;;;;;;;5.50;2.97;;;;;;;12.57;14.96;99468.78;5027666;28;20054;-59
2022/03/13 15:27:33;;;;;;;4.28;2.03;;;;;;;12.21;14.44;99490.41;5034689;28;20417;-59
2022/03/13 15:30:18;;;;;;;3.42;2.35;;;;;;;12.02;14.51;99467.91;5032060;28;20045;-60
2022/03/13 15:33:05;;;;;;;5.68;2.40;;;;;;;12.15;14.66;99476.72;5028681;28;20060;-58
2022/03/13 15:35:51;;;;;;;4.43;2.38;;;;;;;12.25;14.60;99474.34;5036846;28;20073;-60
2022/03/13 15:38:36;;;;;;;4.55;2.65;;;;;;;12.48;14.83;99474.66;5036974;28;20045;-59
2022/03/13 15:41:21;;;;;;;4.80;2.67;;;;;;;11.98;15.02;99476.94;5013926;28;20077;-59
2022/03/13 15:44:07;;;;;;;7.30;2.45;;;;;;;11.79;15.51;99471.06;5027571;28;20050;-61
2022/03/13 15:46:53;;;;;;;5.05;3.05;;;;;;;11.61;15.88;99480.91;5013796;28;20133;-58
2022/03/13 15:49:38;;;;;;;5.72;2.85;;;;;;;11.07;16.20;99464.88;5013951;28;20037;-59
2022/03/13 15:52:25;;;;;;;5.38;2.30;;;;;;;11.48;16.22;99478.19;5013830;28;20113;-59
2022/03/13 15:55:09;;;;;;;4.50;2.63;;;;;;;11.13;16.15;99471.50;5013859;28;20069;-59